sensor_id;sensor_type;location;lat;lon;timestamp;P1;durP1;ratioP1;P2;durP2;ratioP2
53545;SDS011;39432;51.902;10.844;2023-07-02T00:01:42;2.38;;;1.60;;
53545;SDS011;39432;51.902;10.844;2023-07-02T00:04:12;2.72;;;1.55;;
53545;SDS011;39432;51.902;10.844;2023-07-02T00:06:43;3.60;;;1.58;;
53545;SDS011;39432;51.902;10.844;2023-07-02T00:09:13;3.95;;;2.00;;
53545;SDS011;39432;51.902;10.844;2023-07-02T00:11:44;3.50;;;1.80;;
53545;SDS011;39432;51.902;10.844;2023-07-02T00:14:15;2.83;;;1.75;;
53545;SDS011;39432;51.902;10.844;2023-07-02T00:16:47;2.88;;;1.65;;
53545;SDS011;39432;51.902;10.844;2023-07-02T00:19:17;4.57;;;2.15;;
53545;SDS011;39432;51.902;10.844;2023-07-02T00:21:47;3.10;;;1.83;;
53545;SDS011;39432;51.902;10.844;2023-07-02T00:24:17;5.90;;;2.08;;
53545;SDS011;39432;51.902;10.844;2023-07-02T00:26:47;2.20;;;1.80;;
53545;SDS011;39432;51.902;10.844;2023-07-02T00:29:17;4.07;;;1.75;;
53545;SDS011;39432;51.902;10.844;2023-07-02T00:31:49;2.33;;;1.52;;
53545;SDS011;39432;51.902;10.844;2023-07-02T00:34:19;2.53;;;1.52;;
53545;SDS011;39432;51.902;10.844;2023-07-02T00:36:50;3.63;;;1.70;;
53545;SDS011;39432;51.902;10.844;2023-07-02T00:39:20;2.13;;;1.30;;
53545;SDS011;39432;51.902;10.844;2023-07-02T00:41:50;2.58;;;1.50;;
53545;SDS011;39432;51.902;10.844;2023-07-02T00:44:19;2.45;;;1.33;;
53545;SDS011;39432;51.902;10.844;2023-07-02T00:46:52;2.40;;;1.30;;
53545;SDS011;39432;51.902;10.844;2023-07-02T00:49:22;2.15;;;1.52;;
53545;SDS011;39432;51.902;10.844;2023-07-02T00:51:53;4.47;;;1.80;;
53545;SDS011;39432;51.902;10.844;2023-07-02T00:54:23;4.70;;;1.30;;
53545;SDS011;39432;51.902;10.844;2023-07-02T00:56:53;2.90;;;1.35;;
53545;SDS011;39432;51.902;10.844;2023-07-02T00:59:23;3.05;;;1.50;;
53545;SDS011;39432;51.902;10.844;2023-07-02T01:01:56;2.08;;;1.38;;
53545;SDS011;39432;51.902;10.844;2023-07-02T01:04:26;4.20;;;1.42;;
53545;SDS011;39432;51.902;10.844;2023-07-02T01:06:56;4.60;;;1.50;;
53545;SDS011;39432;51.902;10.844;2023-07-02T01:09:27;3.78;;;1.67;;
53545;SDS011;39432;51.902;10.844;2023-07-02T01:11:57;2.30;;;1.63;;
53545;SDS011;39432;51.902;10.844;2023-07-02T01:14:30;2.75;;;1.65;;
53545;SDS011;39432;51.902;10.844;2023-07-02T01:17:05;1.73;;;1.45;;
53545;SDS011;39432;51.902;10.844;2023-07-02T01:19:42;2.08;;;1.33;;
53545;SDS011;39432;51.902;10.844;2023-07-02T01:22:18;3.42;;;1.60;;
53545;SDS011;39432;51.902;10.844;2023-07-02T01:24:49;4.38;;;1.90;;
53545;SDS011;39432;51.902;10.844;2023-07-02T01:27:20;3.72;;;1.75;;
53545;SDS011;39432;51.902;10.844;2023-07-02T01:29:51;5.57;;;1.35;;
53545;SDS011;39432;51.902;10.844;2023-07-02T01:32:21;3.58;;;1.70;;
53545;SDS011;39432;51.902;10.844;2023-07-02T01:34:55;3.28;;;1.52;;
53545;SDS011;39432;51.902;10.844;2023-07-02T01:37:25;2.03;;;1.20;;
53545;SDS011;39432;51.902;10.844;2023-07-02T01:39:55;2.35;;;1.60;;
53545;SDS011;39432;51.902;10.844;2023-07-02T01:42:25;2.58;;;1.30;;
53545;SDS011;39432;51.902;10.844;2023-07-02T01:44:55;3.80;;;1.67;;
53545;SDS011;39432;51.902;10.844;2023-07-02T01:47:25;3.40;;;1.60;;
53545;SDS011;39432;51.902;10.844;2023-07-02T01:49:58;2.13;;;1.40;;
53545;SDS011;39432;51.902;10.844;2023-07-02T01:52:28;4.88;;;1.40;;
53545;SDS011;39432;51.902;10.844;2023-07-02T01:55:01;4.32;;;1.45;;
53545;SDS011;39432;51.902;10.844;2023-07-02T01:57:31;2.60;;;1.40;;
53545;SDS011;39432;51.902;10.844;2023-07-02T02:00:01;2.15;;;1.27;;
53545;SDS011;39432;51.902;10.844;2023-07-02T02:02:41;2.47;;;1.38;;
53545;SDS011;39432;51.902;10.844;2023-07-02T02:05:14;2.47;;;1.30;;
53545;SDS011;39432;51.902;10.844;2023-07-02T02:07:45;1.88;;;1.33;;
53545;SDS011;39432;51.902;10.844;2023-07-02T02:13:32;1.95;;;1.23;;
53545;SDS011;39432;51.902;10.844;2023-07-02T02:16:02;5.10;;;1.40;;
53545;SDS011;39432;51.902;10.844;2023-07-02T02:18:33;2.95;;;1.75;;
53545;SDS011;39432;51.902;10.844;2023-07-02T02:21:06;2.40;;;1.30;;
53545;SDS011;39432;51.902;10.844;2023-07-02T02:23:36;2.40;;;1.40;;
53545;SDS011;39432;51.902;10.844;2023-07-02T02:26:05;5.18;;;1.48;;
53545;SDS011;39432;51.902;10.844;2023-07-02T02:28:35;5.80;;;1.45;;
53545;SDS011;39432;51.902;10.844;2023-07-02T02:31:05;4.80;;;1.63;;
53545;SDS011;39432;51.902;10.844;2023-07-02T02:33:36;2.22;;;1.50;;
53545;SDS011;39432;51.902;10.844;2023-07-02T02:36:08;2.30;;;1.60;;
53545;SDS011;39432;51.902;10.844;2023-07-02T02:38:38;4.75;;;1.48;;
53545;SDS011;39432;51.902;10.844;2023-07-02T02:41:08;2.70;;;1.60;;
53545;SDS011;39432;51.902;10.844;2023-07-02T02:43:43;3.42;;;1.30;;
53545;SDS011;39432;51.902;10.844;2023-07-02T02:46:19;2.45;;;1.60;;
53545;SDS011;39432;51.902;10.844;2023-07-02T02:48:51;5.10;;;1.23;;
53545;SDS011;39432;51.902;10.844;2023-07-02T02:51:24;3.63;;;1.70;;
53545;SDS011;39432;51.902;10.844;2023-07-02T02:53:54;4.32;;;1.65;;
53545;SDS011;39432;51.902;10.844;2023-07-02T02:56:23;3.50;;;1.90;;
53545;SDS011;39432;51.902;10.844;2023-07-02T02:58:53;2.47;;;1.48;;
53545;SDS011;39432;51.902;10.844;2023-07-02T03:01:23;2.78;;;1.55;;
53545;SDS011;39432;51.902;10.844;2023-07-02T03:03:58;4.07;;;1.50;;
53545;SDS011;39432;51.902;10.844;2023-07-02T03:06:31;4.25;;;1.70;;
53545;SDS011;39432;51.902;10.844;2023-07-02T03:09:01;2.10;;;1.30;;
53545;SDS011;39432;51.902;10.844;2023-07-02T03:11:30;3.17;;;1.58;;
53545;SDS011;39432;51.902;10.844;2023-07-02T03:14:01;4.55;;;2.10;;
53545;SDS011;39432;51.902;10.844;2023-07-02T03:16:30;4.82;;;1.58;;
53545;SDS011;39432;51.902;10.844;2023-07-02T03:19:00;5.45;;;1.83;;
53545;SDS011;39432;51.902;10.844;2023-07-02T03:21:32;4.18;;;1.52;;
53545;SDS011;39432;51.902;10.844;2023-07-02T03:24:02;3.13;;;1.38;;
53545;SDS011;39432;51.902;10.844;2023-07-02T03:26:32;2.33;;;1.55;;
53545;SDS011;39432;51.902;10.844;2023-07-02T03:29:02;3.95;;;1.83;;
53545;SDS011;39432;51.902;10.844;2023-07-02T03:31:32;3.83;;;1.98;;
53545;SDS011;39432;51.902;10.844;2023-07-02T03:34:02;5.85;;;2.10;;
53545;SDS011;39432;51.902;10.844;2023-07-02T03:36:36;7.38;;;1.90;;
53545;SDS011;39432;51.902;10.844;2023-07-02T03:39:06;5.90;;;1.90;;
53545;SDS011;39432;51.902;10.844;2023-07-02T03:41:36;4.00;;;1.88;;
53545;SDS011;39432;51.902;10.844;2023-07-02T03:44:06;2.83;;;2.00;;
53545;SDS011;39432;51.902;10.844;2023-07-02T03:46:36;3.38;;;2.10;;
53545;SDS011;39432;51.902;10.844;2023-07-02T03:49:06;5.20;;;2.10;;
53545;SDS011;39432;51.902;10.844;2023-07-02T03:51:38;3.65;;;1.80;;
53545;SDS011;39432;51.902;10.844;2023-07-02T03:54:08;3.00;;;1.73;;
53545;SDS011;39432;51.902;10.844;2023-07-02T03:56:38;3.22;;;1.77;;
53545;SDS011;39432;51.902;10.844;2023-07-02T03:59:08;4.05;;;1.75;;
53545;SDS011;39432;51.902;10.844;2023-07-02T04:01:38;3.90;;;1.95;;
53545;SDS011;39432;51.902;10.844;2023-07-02T04:04:07;5.22;;;1.80;;
53545;SDS011;39432;51.902;10.844;2023-07-02T04:06:41;4.88;;;1.90;;
53545;SDS011;39432;51.902;10.844;2023-07-02T04:09:11;2.55;;;1.60;;
53545;SDS011;39432;51.902;10.844;2023-07-02T04:11:41;3.67;;;1.80;;
53545;SDS011;39432;51.902;10.844;2023-07-02T04:14:10;3.13;;;1.85;;
53545;SDS011;39432;51.902;10.844;2023-07-02T04:16:41;2.33;;;1.58;;
53545;SDS011;39432;51.902;10.844;2023-07-02T04:19:13;2.28;;;1.88;;
53545;SDS011;39432;51.902;10.844;2023-07-02T04:21:45;3.65;;;1.60;;
53545;SDS011;39432;51.902;10.844;2023-07-02T04:24:15;3.67;;;1.70;;
53545;SDS011;39432;51.902;10.844;2023-07-02T04:26:45;2.50;;;1.67;;
53545;SDS011;39432;51.902;10.844;2023-07-02T04:29:35;3.33;;;1.92;;
53545;SDS011;39432;51.902;10.844;2023-07-02T04:32:05;2.75;;;1.80;;
53545;SDS011;39432;51.902;10.844;2023-07-02T04:34:36;5.07;;;2.00;;
53545;SDS011;39432;51.902;10.844;2023-07-02T04:37:08;5.38;;;2.42;;
53545;SDS011;39432;51.902;10.844;2023-07-02T04:39:38;3.47;;;2.47;;
53545;SDS011;39432;51.902;10.844;2023-07-02T04:42:09;4.25;;;2.75;;
53545;SDS011;39432;51.902;10.844;2023-07-02T04:44:42;5.57;;;2.70;;
53545;SDS011;39432;51.902;10.844;2023-07-02T04:47:12;3.63;;;2.67;;
53545;SDS011;39432;51.902;10.844;2023-07-02T04:49:42;3.53;;;2.78;;
53545;SDS011;39432;51.902;10.844;2023-07-02T04:52:14;4.07;;;2.90;;
53545;SDS011;39432;51.902;10.844;2023-07-02T04:54:44;3.63;;;2.97;;
53545;SDS011;39432;51.902;10.844;2023-07-02T04:57:14;4.13;;;3.30;;
53545;SDS011;39432;51.902;10.844;2023-07-02T04:59:44;4.53;;;3.40;;
53545;SDS011;39432;51.902;10.844;2023-07-02T05:02:14;4.80;;;3.67;;
53545;SDS011;39432;51.902;10.844;2023-07-02T05:04:44;6.05;;;3.80;;
53545;SDS011;39432;51.902;10.844;2023-07-02T05:07:16;5.90;;;4.15;;
53545;SDS011;39432;51.902;10.844;2023-07-02T05:09:46;5.28;;;4.18;;
53545;SDS011;39432;51.902;10.844;2023-07-02T05:12:19;5.30;;;4.20;;
53545;SDS011;39432;51.902;10.844;2023-07-02T05:14:48;5.88;;;4.68;;
53545;SDS011;39432;51.902;10.844;2023-07-02T05:17:18;5.65;;;4.32;;
53545;SDS011;39432;51.902;10.844;2023-07-02T05:19:48;5.03;;;4.25;;
53545;SDS011;39432;51.902;10.844;2023-07-02T05:22:21;5.53;;;4.40;;
53545;SDS011;39432;51.902;10.844;2023-07-02T05:24:51;5.57;;;4.38;;
53545;SDS011;39432;51.902;10.844;2023-07-02T05:27:20;6.35;;;3.90;;
53545;SDS011;39432;51.902;10.844;2023-07-02T05:29:50;5.63;;;4.63;;
53545;SDS011;39432;51.902;10.844;2023-07-02T05:32:20;5.53;;;3.92;;
53545;SDS011;39432;51.902;10.844;2023-07-02T05:34:50;6.70;;;3.70;;
53545;SDS011;39432;51.902;10.844;2023-07-02T05:37:23;6.13;;;3.67;;
53545;SDS011;39432;51.902;10.844;2023-07-02T05:39:52;5.45;;;4.78;;
53545;SDS011;39432;51.902;10.844;2023-07-02T05:42:22;8.52;;;3.92;;
53545;SDS011;39432;51.902;10.844;2023-07-02T05:44:52;5.90;;;3.50;;
53545;SDS011;39432;51.902;10.844;2023-07-02T05:47:22;4.43;;;2.88;;
53545;SDS011;39432;51.902;10.844;2023-07-02T05:49:56;5.38;;;3.60;;
53545;SDS011;39432;51.902;10.844;2023-07-02T05:52:28;6.72;;;3.25;;
53545;SDS011;39432;51.902;10.844;2023-07-02T05:54:58;6.00;;;3.13;;
53545;SDS011;39432;51.902;10.844;2023-07-02T05:57:28;7.32;;;3.75;;
53545;SDS011;39432;51.902;10.844;2023-07-02T05:59:58;5.55;;;3.25;;
53545;SDS011;39432;51.902;10.844;2023-07-02T06:02:37;6.18;;;3.63;;
53545;SDS011;39432;51.902;10.844;2023-07-02T06:05:08;4.45;;;3.30;;
53545;SDS011;39432;51.902;10.844;2023-07-02T06:07:40;5.97;;;3.70;;
53545;SDS011;39432;51.902;10.844;2023-07-02T06:10:10;5.13;;;3.40;;
53545;SDS011;39432;51.902;10.844;2023-07-02T06:12:40;4.93;;;3.42;;
53545;SDS011;39432;51.902;10.844;2023-07-02T06:15:10;6.95;;;3.35;;
53545;SDS011;39432;51.902;10.844;2023-07-02T06:17:40;9.85;;;3.50;;
53545;SDS011;39432;51.902;10.844;2023-07-02T06:20:10;4.30;;;3.08;;
53545;SDS011;39432;51.902;10.844;2023-07-02T06:22:44;4.97;;;3.40;;
53545;SDS011;39432;51.902;10.844;2023-07-02T06:25:13;5.57;;;3.30;;
53545;SDS011;39432;51.902;10.844;2023-07-02T06:27:43;5.28;;;3.08;;
53545;SDS011;39432;51.902;10.844;2023-07-02T06:30:13;5.47;;;3.08;;
53545;SDS011;39432;51.902;10.844;2023-07-02T06:32:43;4.22;;;2.80;;
53545;SDS011;39432;51.902;10.844;2023-07-02T06:35:13;3.10;;;2.38;;
53545;SDS011;39432;51.902;10.844;2023-07-02T06:37:45;5.32;;;2.80;;
53545;SDS011;39432;51.902;10.844;2023-07-02T06:40:15;4.80;;;3.20;;
53545;SDS011;39432;51.902;10.844;2023-07-02T06:42:45;5.53;;;3.67;;
53545;SDS011;39432;51.902;10.844;2023-07-02T06:45:15;9.15;;;4.20;;
53545;SDS011;39432;51.902;10.844;2023-07-02T06:47:45;12.55;;;4.50;;
53545;SDS011;39432;51.902;10.844;2023-07-02T06:50:15;11.65;;;4.88;;
53545;SDS011;39432;51.902;10.844;2023-07-02T06:52:47;17.63;;;5.22;;
53545;SDS011;39432;51.902;10.844;2023-07-02T06:55:17;14.05;;;5.25;;
53545;SDS011;39432;51.902;10.844;2023-07-02T06:57:47;13.63;;;5.18;;
53545;SDS011;39432;51.902;10.844;2023-07-02T07:00:17;12.85;;;5.00;;
53545;SDS011;39432;51.902;10.844;2023-07-02T07:02:47;20.85;;;5.70;;
53545;SDS011;39432;51.902;10.844;2023-07-02T07:05:17;11.45;;;4.88;;
53545;SDS011;39432;51.902;10.844;2023-07-02T07:07:50;13.95;;;5.10;;
53545;SDS011;39432;51.902;10.844;2023-07-02T07:10:20;12.75;;;5.10;;
53545;SDS011;39432;51.902;10.844;2023-07-02T07:12:50;11.88;;;4.57;;
53545;SDS011;39432;51.902;10.844;2023-07-02T07:15:20;10.32;;;5.28;;
53545;SDS011;39432;51.902;10.844;2023-07-02T07:17:50;13.25;;;5.57;;
53545;SDS011;39432;51.902;10.844;2023-07-02T07:20:20;11.95;;;5.28;;
53545;SDS011;39432;51.902;10.844;2023-07-02T07:22:52;11.57;;;5.05;;
53545;SDS011;39432;51.902;10.844;2023-07-02T07:25:22;16.33;;;5.35;;
53545;SDS011;39432;51.902;10.844;2023-07-02T07:27:52;19.23;;;5.50;;
53545;SDS011;39432;51.902;10.844;2023-07-02T07:30:22;11.90;;;5.28;;
53545;SDS011;39432;51.902;10.844;2023-07-02T07:32:52;12.38;;;4.97;;
53545;SDS011;39432;51.902;10.844;2023-07-02T07:35:22;15.43;;;5.63;;
53545;SDS011;39432;51.902;10.844;2023-07-02T07:37:55;15.23;;;5.25;;
53545;SDS011;39432;51.902;10.844;2023-07-02T07:40:24;12.93;;;5.25;;
53545;SDS011;39432;51.902;10.844;2023-07-02T07:42:54;13.73;;;5.10;;
53545;SDS011;39432;51.902;10.844;2023-07-02T07:45:24;13.48;;;5.05;;
53545;SDS011;39432;51.902;10.844;2023-07-02T07:47:54;13.90;;;5.38;;
53545;SDS011;39432;51.902;10.844;2023-07-02T07:50:24;10.75;;;5.32;;
53545;SDS011;39432;51.902;10.844;2023-07-02T07:52:57;10.77;;;4.70;;
53545;SDS011;39432;51.902;10.844;2023-07-02T07:55:27;10.68;;;5.28;;
53545;SDS011;39432;51.902;10.844;2023-07-02T07:57:57;8.85;;;4.30;;
53545;SDS011;39432;51.902;10.844;2023-07-02T08:00:27;11.00;;;4.40;;
53545;SDS011;39432;51.902;10.844;2023-07-02T08:02:57;11.30;;;4.40;;
53545;SDS011;39432;51.902;10.844;2023-07-02T08:05:28;13.85;;;4.70;;
53545;SDS011;39432;51.902;10.844;2023-07-02T08:08:00;8.63;;;3.85;;
53545;SDS011;39432;51.902;10.844;2023-07-02T08:10:30;10.00;;;4.47;;
53545;SDS011;39432;51.902;10.844;2023-07-02T08:13:00;8.90;;;4.43;;
53545;SDS011;39432;51.902;10.844;2023-07-02T08:15:30;10.85;;;4.50;;
53545;SDS011;39432;51.902;10.844;2023-07-02T08:17:59;7.95;;;4.25;;
53545;SDS011;39432;51.902;10.844;2023-07-02T08:20:30;13.20;;;4.25;;
53545;SDS011;39432;51.902;10.844;2023-07-02T08:23:03;10.98;;;4.50;;
53545;SDS011;39432;51.902;10.844;2023-07-02T08:25:33;13.27;;;5.47;;
53545;SDS011;39432;51.902;10.844;2023-07-02T08:28:02;12.23;;;4.90;;
53545;SDS011;39432;51.902;10.844;2023-07-02T08:30:32;12.30;;;4.55;;
53545;SDS011;39432;51.902;10.844;2023-07-02T08:33:02;12.02;;;4.75;;
53545;SDS011;39432;51.902;10.844;2023-07-02T08:35:32;11.10;;;4.40;;
53545;SDS011;39432;51.902;10.844;2023-07-02T08:38:04;10.98;;;4.28;;
53545;SDS011;39432;51.902;10.844;2023-07-02T08:40:35;12.85;;;5.90;;
53545;SDS011;39432;51.902;10.844;2023-07-02T08:43:04;11.32;;;4.35;;
53545;SDS011;39432;51.902;10.844;2023-07-02T08:45:34;12.52;;;5.47;;
53545;SDS011;39432;51.902;10.844;2023-07-02T08:48:05;12.00;;;4.85;;
53545;SDS011;39432;51.902;10.844;2023-07-02T08:50:35;15.18;;;5.18;;
53545;SDS011;39432;51.902;10.844;2023-07-02T08:53:08;11.35;;;5.28;;
53545;SDS011;39432;51.902;10.844;2023-07-02T08:55:37;10.20;;;5.07;;
53545;SDS011;39432;51.902;10.844;2023-07-02T08:58:07;11.63;;;4.72;;
53545;SDS011;39432;51.902;10.844;2023-07-02T09:00:37;16.83;;;5.57;;
53545;SDS011;39432;51.902;10.844;2023-07-02T09:03:12;10.10;;;5.05;;
53545;SDS011;39432;51.902;10.844;2023-07-02T09:05:48;10.95;;;5.50;;
53545;SDS011;39432;51.902;10.844;2023-07-02T09:08:27;16.10;;;5.22;;
53545;SDS011;39432;51.902;10.844;2023-07-02T09:11:10;11.65;;;5.38;;
53545;SDS011;39432;51.902;10.844;2023-07-02T09:13:42;11.80;;;4.80;;
53545;SDS011;39432;51.902;10.844;2023-07-02T09:16:25;12.40;;;5.35;;
53545;SDS011;39432;51.902;10.844;2023-07-02T09:18:56;13.77;;;4.70;;
53545;SDS011;39432;51.902;10.844;2023-07-02T09:21:27;11.73;;;5.10;;
53545;SDS011;39432;51.902;10.844;2023-07-02T09:24:00;13.25;;;5.40;;
53545;SDS011;39432;51.902;10.844;2023-07-02T09:26:30;11.27;;;5.32;;
53545;SDS011;39432;51.902;10.844;2023-07-02T09:29:00;11.77;;;5.30;;
53545;SDS011;39432;51.902;10.844;2023-07-02T09:31:30;10.45;;;4.95;;
53545;SDS011;39432;51.902;10.844;2023-07-02T09:34:03;10.95;;;5.25;;
53545;SDS011;39432;51.902;10.844;2023-07-02T09:36:35;11.75;;;4.70;;
53545;SDS011;39432;51.902;10.844;2023-07-02T09:39:11;10.27;;;5.05;;
53545;SDS011;39432;51.902;10.844;2023-07-02T09:41:42;11.75;;;5.30;;
53545;SDS011;39432;51.902;10.844;2023-07-02T09:44:12;9.88;;;5.13;;
53545;SDS011;39432;51.902;10.844;2023-07-02T09:46:44;15.07;;;5.43;;
53545;SDS011;39432;51.902;10.844;2023-07-02T09:51:50;15.82;;;5.28;;
53545;SDS011;39432;51.902;10.844;2023-07-02T09:54:23;16.33;;;5.65;;
53545;SDS011;39432;51.902;10.844;2023-07-02T09:56:52;11.85;;;5.25;;
53545;SDS011;39432;51.902;10.844;2023-07-02T09:59:22;10.00;;;5.07;;
53545;SDS011;39432;51.902;10.844;2023-07-02T10:01:53;11.38;;;4.97;;
53545;SDS011;39432;51.902;10.844;2023-07-02T10:04:23;11.93;;;5.95;;
53545;SDS011;39432;51.902;10.844;2023-07-02T10:06:54;9.57;;;4.57;;
53545;SDS011;39432;51.902;10.844;2023-07-02T10:09:36;12.35;;;5.28;;
53545;SDS011;39432;51.902;10.844;2023-07-02T10:12:17;11.93;;;4.40;;
53545;SDS011;39432;51.902;10.844;2023-07-02T10:14:48;11.88;;;5.10;;
53545;SDS011;39432;51.902;10.844;2023-07-02T10:17:23;14.98;;;5.00;;
53545;SDS011;39432;51.902;10.844;2023-07-02T10:19:56;14.80;;;5.55;;
53545;SDS011;39432;51.902;10.844;2023-07-02T10:22:27;13.45;;;5.25;;
53545;SDS011;39432;51.902;10.844;2023-07-02T10:25:00;15.57;;;5.55;;
53545;SDS011;39432;51.902;10.844;2023-07-02T10:27:33;12.48;;;5.10;;
53545;SDS011;39432;51.902;10.844;2023-07-02T10:30:05;12.82;;;5.00;;
53545;SDS011;39432;51.902;10.844;2023-07-02T10:32:37;10.55;;;5.43;;
53545;SDS011;39432;51.902;10.844;2023-07-02T10:35:13;15.25;;;5.25;;
53545;SDS011;39432;51.902;10.844;2023-07-02T10:37:44;12.00;;;5.47;;
53545;SDS011;39432;51.902;10.844;2023-07-02T10:40:17;24.23;;;5.60;;
53545;SDS011;39432;51.902;10.844;2023-07-02T10:42:47;16.38;;;5.72;;
53545;SDS011;39432;51.902;10.844;2023-07-02T10:45:18;13.75;;;5.65;;
53545;SDS011;39432;51.902;10.844;2023-07-02T10:47:49;14.00;;;5.13;;
53545;SDS011;39432;51.902;10.844;2023-07-02T10:50:19;15.77;;;5.78;;
53545;SDS011;39432;51.902;10.844;2023-07-02T10:52:50;11.90;;;5.18;;
53545;SDS011;39432;51.902;10.844;2023-07-02T10:55:23;14.02;;;5.50;;
53545;SDS011;39432;51.902;10.844;2023-07-02T10:58:04;12.77;;;4.90;;
53545;SDS011;39432;51.902;10.844;2023-07-02T11:00:42;11.45;;;5.55;;
53545;SDS011;39432;51.902;10.844;2023-07-02T11:03:16;12.68;;;5.03;;
53545;SDS011;39432;51.902;10.844;2023-07-02T11:05:48;14.43;;;5.97;;
53545;SDS011;39432;51.902;10.844;2023-07-02T11:08:19;12.07;;;5.97;;
53545;SDS011;39432;51.902;10.844;2023-07-02T11:11:02;17.92;;;5.28;;
53545;SDS011;39432;51.902;10.844;2023-07-02T11:13:34;11.20;;;5.35;;
53545;SDS011;39432;51.902;10.844;2023-07-02T11:16:04;12.65;;;5.38;;
53545;SDS011;39432;51.902;10.844;2023-07-02T11:18:34;13.93;;;5.90;;
53545;SDS011;39432;51.902;10.844;2023-07-02T11:21:09;12.07;;;5.60;;
53545;SDS011;39432;51.902;10.844;2023-07-02T11:23:39;11.20;;;5.18;;
53545;SDS011;39432;51.902;10.844;2023-07-02T11:26:12;11.52;;;6.00;;
53545;SDS011;39432;51.902;10.844;2023-07-02T11:28:48;14.20;;;5.30;;
53545;SDS011;39432;51.902;10.844;2023-07-02T11:31:25;13.13;;;6.00;;
53545;SDS011;39432;51.902;10.844;2023-07-02T11:33:56;12.65;;;5.75;;
53545;SDS011;39432;51.902;10.844;2023-07-02T11:36:26;13.52;;;6.18;;
53545;SDS011;39432;51.902;10.844;2023-07-02T11:38:56;12.95;;;5.57;;
53545;SDS011;39432;51.902;10.844;2023-07-02T11:41:35;13.35;;;5.85;;
53545;SDS011;39432;51.902;10.844;2023-07-02T11:44:06;12.02;;;5.32;;
53545;SDS011;39432;51.902;10.844;2023-07-02T11:46:36;12.23;;;5.13;;
53545;SDS011;39432;51.902;10.844;2023-07-02T11:49:06;14.52;;;6.22;;
53545;SDS011;39432;51.902;10.844;2023-07-02T11:51:36;11.75;;;5.32;;
53545;SDS011;39432;51.902;10.844;2023-07-02T11:54:07;12.85;;;5.70;;
53545;SDS011;39432;51.902;10.844;2023-07-02T11:56:39;11.18;;;4.45;;
53545;SDS011;39432;51.902;10.844;2023-07-02T11:59:09;19.50;;;5.80;;
53545;SDS011;39432;51.902;10.844;2023-07-02T12:01:39;12.82;;;6.05;;
53545;SDS011;39432;51.902;10.844;2023-07-02T12:04:10;10.07;;;5.00;;
53545;SDS011;39432;51.902;10.844;2023-07-02T12:06:40;11.18;;;5.20;;
53545;SDS011;39432;51.902;10.844;2023-07-02T12:09:09;10.95;;;5.57;;
53545;SDS011;39432;51.902;10.844;2023-07-02T12:11:42;11.88;;;5.70;;
53545;SDS011;39432;51.902;10.844;2023-07-02T12:14:12;20.20;;;5.30;;
53545;SDS011;39432;51.902;10.844;2023-07-02T12:16:42;11.45;;;5.78;;
53545;SDS011;39432;51.902;10.844;2023-07-02T12:19:12;17.95;;;6.15;;
53545;SDS011;39432;51.902;10.844;2023-07-02T12:21:42;17.45;;;5.63;;
53545;SDS011;39432;51.902;10.844;2023-07-02T12:24:12;11.07;;;5.22;;
53545;SDS011;39432;51.902;10.844;2023-07-02T12:26:45;12.45;;;5.22;;
53545;SDS011;39432;51.902;10.844;2023-07-02T12:29:14;12.27;;;5.65;;
53545;SDS011;39432;51.902;10.844;2023-07-02T12:31:44;11.25;;;4.50;;
53545;SDS011;39432;51.902;10.844;2023-07-02T12:34:14;12.70;;;5.53;;
53545;SDS011;39432;51.902;10.844;2023-07-02T12:36:44;13.30;;;5.32;;
53545;SDS011;39432;51.902;10.844;2023-07-02T12:39:13;15.48;;;5.20;;
53545;SDS011;39432;51.902;10.844;2023-07-02T12:41:49;10.25;;;4.97;;
53545;SDS011;39432;51.902;10.844;2023-07-02T12:44:18;17.42;;;5.70;;
53545;SDS011;39432;51.902;10.844;2023-07-02T12:46:48;11.43;;;5.22;;
53545;SDS011;39432;51.902;10.844;2023-07-02T12:49:18;13.07;;;5.10;;
53545;SDS011;39432;51.902;10.844;2023-07-02T12:51:48;14.85;;;5.05;;
53545;SDS011;39432;51.902;10.844;2023-07-02T12:54:18;12.43;;;5.00;;
53545;SDS011;39432;51.902;10.844;2023-07-02T12:56:50;12.60;;;5.70;;
53545;SDS011;39432;51.902;10.844;2023-07-02T12:59:20;11.98;;;5.18;;
53545;SDS011;39432;51.902;10.844;2023-07-02T13:01:50;12.57;;;4.72;;
53545;SDS011;39432;51.902;10.844;2023-07-02T13:04:20;9.82;;;5.05;;
53545;SDS011;39432;51.902;10.844;2023-07-02T13:06:50;12.05;;;5.00;;
53545;SDS011;39432;51.902;10.844;2023-07-02T13:09:20;13.52;;;4.90;;
53545;SDS011;39432;51.902;10.844;2023-07-02T13:11:52;13.07;;;5.45;;
53545;SDS011;39432;51.902;10.844;2023-07-02T13:14:22;14.60;;;4.93;;
53545;SDS011;39432;51.902;10.844;2023-07-02T13:16:52;12.65;;;4.88;;
53545;SDS011;39432;51.902;10.844;2023-07-02T13:19:22;13.18;;;5.30;;
53545;SDS011;39432;51.902;10.844;2023-07-02T13:21:52;10.45;;;4.60;;
53545;SDS011;39432;51.902;10.844;2023-07-02T13:24:22;11.05;;;5.10;;
53545;SDS011;39432;51.902;10.844;2023-07-02T13:26:54;10.57;;;4.97;;
53545;SDS011;39432;51.902;10.844;2023-07-02T13:29:24;12.35;;;5.38;;
53545;SDS011;39432;51.902;10.844;2023-07-02T13:31:54;11.52;;;5.53;;
53545;SDS011;39432;51.902;10.844;2023-07-02T13:34:24;12.80;;;5.32;;
53545;SDS011;39432;51.902;10.844;2023-07-02T13:36:53;10.38;;;4.85;;
53545;SDS011;39432;51.902;10.844;2023-07-02T13:39:23;10.98;;;4.93;;
53545;SDS011;39432;51.902;10.844;2023-07-02T13:41:56;12.13;;;5.15;;
53545;SDS011;39432;51.902;10.844;2023-07-02T13:44:26;9.35;;;5.00;;
53545;SDS011;39432;51.902;10.844;2023-07-02T13:46:56;13.65;;;5.35;;
53545;SDS011;39432;51.902;10.844;2023-07-02T13:49:26;14.43;;;5.53;;
53545;SDS011;39432;51.902;10.844;2023-07-02T13:51:55;15.63;;;5.38;;
53545;SDS011;39432;51.902;10.844;2023-07-02T13:54:25;12.00;;;4.95;;
53545;SDS011;39432;51.902;10.844;2023-07-02T13:56:58;14.02;;;4.70;;
53545;SDS011;39432;51.902;10.844;2023-07-02T13:59:30;10.32;;;5.50;;
53545;SDS011;39432;51.902;10.844;2023-07-02T14:02:00;10.85;;;4.88;;
53545;SDS011;39432;51.902;10.844;2023-07-02T14:04:30;9.10;;;4.68;;
53545;SDS011;39432;51.902;10.844;2023-07-02T14:07:00;15.45;;;5.03;;
53545;SDS011;39432;51.902;10.844;2023-07-02T14:09:29;14.38;;;5.07;;
53545;SDS011;39432;51.902;10.844;2023-07-02T14:11:59;9.23;;;4.97;;
53545;SDS011;39432;51.902;10.844;2023-07-02T14:14:31;10.68;;;4.63;;
53545;SDS011;39432;51.902;10.844;2023-07-02T14:17:01;9.90;;;4.72;;
53545;SDS011;39432;51.902;10.844;2023-07-02T14:19:31;10.27;;;5.88;;
53545;SDS011;39432;51.902;10.844;2023-07-02T14:22:01;10.15;;;4.68;;
53545;SDS011;39432;51.902;10.844;2023-07-02T14:24:31;13.90;;;5.10;;
53545;SDS011;39432;51.902;10.844;2023-07-02T14:27:03;13.85;;;4.70;;
53545;SDS011;39432;51.902;10.844;2023-07-02T14:29:36;10.63;;;4.32;;
53545;SDS011;39432;51.902;10.844;2023-07-02T14:32:07;13.52;;;4.40;;
53545;SDS011;39432;51.902;10.844;2023-07-02T14:34:37;10.45;;;4.93;;
53545;SDS011;39432;51.902;10.844;2023-07-02T14:37:07;10.52;;;4.55;;
53545;SDS011;39432;51.902;10.844;2023-07-02T14:39:36;10.93;;;4.32;;
53545;SDS011;39432;51.902;10.844;2023-07-02T14:42:13;9.57;;;4.30;;
53545;SDS011;39432;51.902;10.844;2023-07-02T14:44:45;10.50;;;4.35;;
53545;SDS011;39432;51.902;10.844;2023-07-02T14:47:15;10.70;;;5.07;;
53545;SDS011;39432;51.902;10.844;2023-07-02T14:49:45;8.18;;;4.10;;
53545;SDS011;39432;51.902;10.844;2023-07-02T14:52:15;8.18;;;4.50;;
53545;SDS011;39432;51.902;10.844;2023-07-02T14:54:46;11.65;;;4.45;;
53545;SDS011;39432;51.902;10.844;2023-07-02T14:57:15;10.30;;;4.75;;